Flight Track Log - Related Links

Times and Time Zones

All times are in EDT time to prevent confusion due to time zone crossing. See the XOJ552 flight status page for this flight to view local times or setup timezone preferences in your user account.

Time Position Orientation Groundspeed Altitude Reporting Facility
EDT Latitude Longitude Course Direction KTS MPH feet Rate Location/Type
Thu 08:45:44 AM 32.8667 -96.8500 308° West 144 166 1,600  Level Dallas / Fort Worth TRACON
Thu 08:46:44 AM 32.9000 -96.9000 308° West 253 291 4,400 2,524 Climbing Dallas / Fort Worth TRACON
Thu 08:47:50 AM 32.9667 -96.9167 348° North 223 257 6,900 2,567 Climbing Dallas / Fort Worth TRACON
Thu 08:49:51 AM 32.9756 -96.7300 87° East 284 327 12,400 2,619 Climbing Fort Worth Center
Thu 08:50:51 AM 32.9731 -96.6383 92° East 304 350 14,800 3,050 Climbing Fort Worth Center
Thu 08:51:51 AM 32.9719 -96.4775 90° East 371 427 18,500 3,650 Climbing Fort Worth Center
Thu 08:52:51 AM 32.9728 -96.3461 90° East 402 463 22,100 2,250 Climbing Fort Worth Center
Thu 08:53:51 AM 32.9883 -96.2072 82° East 407 468 23,000 1,050 Climbing Fort Worth Center
Thu 08:54:51 AM 33.0078 -96.0633 81° East 432 497 24,200 1,850 Climbing Fort Worth Center
Thu 08:55:51 AM 33.0269 -95.9219 81° East 432 497 26,700 2,700 Climbing Fort Worth Center
Thu 08:56:51 AM 33.0481 -95.7753 80° East 443 510 29,600 2,150 Climbing Fort Worth Center
Thu 08:57:51 AM 33.0669 -95.6261 81° East 449 517 31,000 700 Climbing Fort Worth Center
Thu 08:58:51 AM 33.0944 -95.4942 76° East 456 525 31,000  Level Fort Worth Center
Thu 08:59:51 AM 33.1400 -95.3469 70° East 456 525 31,000  Level Fort Worth Center
Thu 09:00:51 AM 33.1833 -95.1994 71° East 462 532 31,000  Level Fort Worth Center
Thu 09:01:51 AM 33.2267 -95.0542 70° East 467 537 31,000 500 Level Fort Worth Center
Thu 09:02:51 AM 33.2678 -94.9142 71° East 462 532 32,000 1,450 Climbing Fort Worth Center
Thu 09:03:51 AM 33.3108 -94.7686 70° East 457 526 33,900 1,950 Climbing Fort Worth Center
Thu 09:04:51 AM 33.3536 -94.6256 70° East 452 520 35,900 1,900 Climbing Fort Worth Center
Thu 09:05:51 AM 33.3983 -94.4825 69° East 452 520 37,700 1,700 Climbing Fort Worth Center
Thu 09:06:51 AM 33.4408 -94.3342 71° East 452 520 39,300 1,350 Climbing Fort Worth Center
Thu 09:07:51 AM 33.4850 -94.1883 70° East 452 520 40,400 850 Climbing Fort Worth Center
Thu 09:08:51 AM 33.5356 -94.0419 67° East 458 527 41,000 300 Climbing Fort Worth Center
Thu 09:09:51 AM 33.5878 -93.8953 67° East 463 533 41,000  Level Fort Worth Center
Thu 09:10:51 AM 33.6481 -93.7381 65° Northeast 469 540 41,000  Level Fort Worth Center
Thu 09:12:32 AM 33.7344 -93.5119 65° Northeast 465 535 41,000  Level Memphis Center
Thu 09:13:32 AM 33.7900 -93.3689 65° Northeast 465 535 41,000  Level Memphis Center
Thu 09:14:32 AM 33.8456 -93.2208 66° East 471 542 41,000  Level Memphis Center
Thu 09:15:32 AM 33.9011 -93.0750 65° Northeast 476 548 41,000  Level Memphis Center
Thu 09:16:32 AM 33.9542 -92.9339 66° East 471 542 41,000  Level Memphis Center
Thu 09:17:32 AM 34.0072 -92.7903 66° East 471 542 41,000  Level Memphis Center
Thu 09:18:32 AM 34.0619 -92.6464 65° Northeast 471 542 41,000  Level Memphis Center
Thu 09:19:32 AM 34.1169 -92.4997 66° East 471 542 41,000  Level Memphis Center
Thu 09:20:32 AM 34.1714 -92.3556 65° Northeast 471 542 41,000  Level Memphis Center
Thu 09:21:32 AM 34.2236 -92.2136 66° East 471 542 41,000  Level Memphis Center
Thu 09:22:32 AM 34.2758 -92.0689 66° East 471 542 41,000  Level Memphis Center
Thu 09:23:32 AM 34.3278 -91.9267 66° East 471 542 41,000  Level Memphis Center
Thu 09:24:32 AM 34.3775 -91.7814 67° East 466 536 41,000  Level Memphis Center
Thu 09:25:32 AM 34.4292 -91.6439 65° Northeast 461 531 41,000  Level Memphis Center
Thu 09:26:32 AM 34.4825 -91.5036 65° Northeast 456 525 41,000  Level Memphis Center
Thu 09:27:32 AM 34.5339 -91.3606 66° East 455 524 41,000  Level Memphis Center
Thu 09:28:32 AM 34.5831 -91.2225 67° East 455 524 41,000  Level Memphis Center
Thu 09:29:32 AM 34.6381 -91.0689 66° East 455 524 41,000  Level Memphis Center
Thu 09:30:32 AM 34.6869 -90.9253 67° East 455 524 41,000  Level Memphis Center
Thu 09:31:32 AM 34.7417 -90.7892 64° Northeast 450 518 41,000  Level Memphis Center
Thu 09:32:32 AM 34.8108 -90.6606 57° Northeast 450 518 41,000  Level Memphis Center
Thu 09:33:32 AM 34.8800 -90.5344 56° Northeast 455 524 41,000  Level Memphis Center
Thu 09:34:32 AM 34.9511 -90.4003 57° Northeast 460 529 41,000  Level Memphis Center
Thu 09:35:32 AM 35.0219 -90.2708 56° Northeast 460 529 41,000  Level Memphis Center
Thu 09:36:32 AM 35.0906 -90.1389 58° Northeast 460 529 41,000  Level Memphis Center
Thu 09:37:32 AM 35.1528 -90.0192 58° Northeast 460 529 41,000  Level Memphis Center
Thu 09:38:32 AM 35.2233 -89.8869 57° Northeast 460 529 41,000  Level Memphis Center
Thu 09:39:32 AM 35.2917 -89.7542 58° Northeast 460 529 41,000  Level Memphis Center
Thu 09:40:32 AM 35.3658 -89.6086 58° Northeast 460 529 41,000  Level Memphis Center
Thu 09:41:32 AM 35.4319 -89.4753 59° Northeast 460 529 41,000  Level Memphis Center
Thu 09:42:32 AM 35.5017 -89.3394 58° Northeast 460 529 41,000  Level Memphis Center
Thu 09:43:32 AM 35.5714 -89.2083 57° Northeast 460 529 41,000  Level Memphis Center
Thu 09:44:32 AM 35.6389 -89.0747 58° Northeast 460 529 41,000  Level Memphis Center
Thu 09:45:32 AM 35.6961 -88.9536 60° Northeast 460 529 41,000 -450 Level Memphis Center
Thu 09:46:32 AM 35.7633 -88.8194 58° Northeast 455 524 40,100 -1,000 Descending Memphis Center
Thu 09:47:32 AM 35.8325 -88.6850 58° Northeast 460 529 39,000 -550 Descending Memphis Center
Thu 09:48:32 AM 35.8994 -88.5556 57° Northeast 460 529 39,000  Level Memphis Center
Thu 09:49:32 AM 35.9683 -88.4181 58° Northeast 460 529 39,000  Level Memphis Center
Thu 09:50:32 AM 36.0347 -88.2831 59° Northeast 460 529 39,000  Level Memphis Center
Thu 09:51:32 AM 36.1056 -88.1450 58° Northeast 460 529 39,000  Level Memphis Center
Thu 09:52:32 AM 36.1797 -87.9964 58° Northeast 460 529 39,000  Level Memphis Center
Thu 09:53:32 AM 36.2461 -87.8608 59° Northeast 473 544 39,000  Level Memphis Center
Thu 09:54:32 AM 36.3181 -87.7169 58° Northeast 473 544 39,000 -200 Level Memphis Center
Thu 09:55:32 AM 36.3758 -87.5964 59° Northeast 473 544 38,600 -850 Descending Memphis Center
Thu 09:56:32 AM 36.4436 -87.4575 59° Northeast 473 544 37,300 -800 Descending Memphis Center
Thu 09:57:32 AM 36.5028 -87.3158 63° Northeast 468 539 37,000 -150 Descending Memphis Center
Thu 09:58:32 AM 36.5575 -87.1769 64° Northeast 457 526 37,000  Level Memphis Center
Thu 09:59:32 AM 36.6267 -87.0242 61° Northeast 452 520 37,000  Level Memphis Center
Thu 10:00:32 AM 36.7089 -86.9069 49° Northeast 452 520 37,000 -350 Level Memphis Center
Thu 10:01:32 AM 36.7908 -86.7869 50° Northeast 452 520 36,300 -1,000 Descending Memphis Center
Thu 10:02:32 AM 36.8578 -86.6517 58° Northeast 457 526 35,000 -650 Descending Memphis Center
Thu 10:03:32 AM 36.9033 -86.5094 68° East 448 516 35,000 -805 Level Memphis Center
Thu 10:05:16 AM 36.9847 -86.2692 67° East 448 516 32,800 -1,627 Descending Indianapolis Center
Thu 10:06:18 AM 37.0322 -86.1217 68° East 452 520 30,500 -2,274 Descending Indianapolis Center
Thu 10:07:20 AM 37.0811 -85.9711 68° East 459 528 28,100 -2,177 Descending Indianapolis Center
Thu 10:08:22 AM 37.1294 -85.8228 68° East 457 526 26,000 -1,984 Descending Indianapolis Center
Thu 10:09:24 AM 37.1756 -85.6781 68° East 448 516 24,000 -1,935 Descending Indianapolis Center
Thu 10:10:26 AM 37.2208 -85.5442 67° East 421 484 22,000 -1,984 Descending Indianapolis Center
Thu 10:11:28 AM 37.2653 -85.4022 68° East 390 449 19,900 -1,984 Descending Indianapolis Center
Thu 10:12:30 AM 37.3050 -85.2769 68° East 384 442 17,900 -1,306 Descending Indianapolis Center
Thu 10:13:32 AM 37.3442 -85.1556 68° East 376 433 17,200 -871 Descending Indianapolis Center
Thu 10:14:34 AM 37.3822 -85.0358 68° East 368 423 16,100 -1,597 Descending Indianapolis Center
Thu 10:15:36 AM 37.4253 -84.8958 69° East 366 421 13,900 -2,032 Descending Indianapolis Center
Thu 10:16:38 AM 37.4628 -84.7769 68° East 365 420 11,900 -1,694 Descending Indianapolis Center
Thu 10:17:40 AM 37.5325 -84.7164 35° Northeast 318 366 10,400 -1,645 Descending Indianapolis Center
Thu 10:18:42 AM 37.6136 -84.6825 18° North 307 353 8,500 -1,597 Descending Indianapolis Center
Thu 10:19:44 AM 37.6914 -84.6514 18° North 297 342 7,100 -726 Descending Indianapolis Center
Thu 10:20:46 AM 37.7678 -84.6164 20° North 293 337 7,000 -387 Descending Indianapolis Center
Thu 10:21:48 AM 37.8586 -84.5789 18° North 292 336 6,300 -1,210 Descending Indianapolis Center
Thu 10:22:50 AM 37.9317 -84.5431 21° North 287 330 4,500 -1,355 Descending Indianapolis Center
Thu 10:23:52 AM 37.9958 -84.4967 30° Northeast 277 319 3,500 -677 Descending Indianapolis Center
Thu 10:24:54 AM 38.0481 -84.4817 13° North 243 280 3,100 -581 Descending Indianapolis Center
Thu 10:25:56 AM 38.0767 -84.5344 305° West 196 226 2,300 -484 Descending Indianapolis Center
Thu 10:26:58 AM 38.0944 -84.5911 292° West 183 211 2,100 -194 Descending Indianapolis Center
Thu 10:28:00 AM 38.0333 -84.6000 270° West  Level FlightAware Approximate

Login

Don't have an account? Register now (free) for customized features, flight alerts, and more!